Time;durP1;ratioP1;P1;durP2;ratioP2;P2;SDS_P1;SDS_P2;PMS_P1;PMS_P2;Temp;Humidity;BMP_temperature;BMP_pressure;BME280_temperature;BME280_humidity;BME280_pressure;Samples;Min_cycle;Max_cycle;Signal;HPM_P1;HPM_P2
2022/10/05 00:02:21;;;;;;;7.45;2.70;;;19.70;99.90;;;;;;5071413;28;20045;-73
2022/10/05 00:04:50;;;;;;;4.47;2.20;;;19.60;99.90;;;;;;5065097;28;20040;-74
2022/10/05 00:07:22;;;;;;;6.40;2.20;;;19.50;99.90;;;;;;5056377;28;20036;-73
2022/10/05 00:09:57;;;;;;;6.72;2.30;;;19.50;99.90;;;;;;5058304;28;20110;-73
2022/10/05 00:12:25;;;;;;;4.70;2.10;;;19.50;99.90;;;;;;5060474;28;20024;-73
2022/10/05 00:14:56;;;;;;;6.38;2.50;;;19.50;99.90;;;;;;5059104;28;20067;-73
2022/10/05 00:17:25;;;;;;;6.15;1.90;;;19.50;99.90;;;;;;5060874;28;20036;-74
2022/10/05 00:19:52;;;;;;;5.53;1.95;;;19.50;99.90;;;;;;5065890;28;20029;-73
2022/10/05 00:22:28;;;;;;;7.03;1.80;;;19.40;99.90;;;;;;5075201;28;20043;-74
2022/10/05 00:24:59;;;;;;;5.68;1.60;;;19.40;99.90;;;;;;5058359;28;20033;-74
2022/10/05 00:27:33;;;;;;;4.82;1.90;;;19.20;99.90;;;;;;5046890;28;20060;-73
2022/10/05 00:30:01;;;;;;;;;;;19.20;99.90;;;;;;5060290;28;20048;-74
2022/10/05 00:32:27;;;;;;;4.38;1.80;;;19.20;99.90;;;;;;5060245;28;19913;-74
2022/10/05 00:34:53;;;;;;;8.18;2.30;;;19.10;99.90;;;;;;5061366;28;20392;-74
2022/10/05 00:37:19;;;;;;;9.18;2.13;;;19.30;99.90;;;;;;5056099;28;20036;-74
2022/10/05 00:39:45;;;;;;;5.82;2.05;;;19.20;99.90;;;;;;5059491;28;20575;-73
2022/10/05 00:42:31;;;;;;;5.30;1.88;;;19.20;99.90;;;;;;5065259;28;20106;-74
2022/10/05 00:45:09;;;;;;;5.88;1.85;;;19.20;99.90;;;;;;5060592;28;20114;-73
2022/10/05 00:47:47;;;;;;;5.45;2.10;;;19.20;99.90;;;;;;5023210;28;20463;-74
2022/10/05 00:50:46;;;;;;;7.28;2.03;;;19.30;99.90;;;;;;5036631;28;20080;-73
2022/10/05 00:53:23;;;;;;;4.93;1.88;;;19.20;99.90;;;;;;5058919;28;20109;-73
2022/10/05 00:55:58;;;;;;;5.70;1.50;;;19.20;99.90;;;;;;5039730;28;20037;-74
2022/10/05 00:59:01;;;;;;;5.07;1.80;;;19.20;99.90;;;;;;5044900;28;20021;-74
2022/10/05 01:01:54;;;;;;;5.50;1.70;;;19.20;99.90;;;;;;5034693;28;20037;-72
2022/10/05 01:04:43;;;;;;;4.22;1.83;;;19.10;99.90;;;;;;5038105;28;20955;-72
2022/10/05 01:07:39;;;;;;;3.95;1.70;;;19.10;99.90;;;;;;5063455;28;20032;-73
2022/10/05 01:10:09;;;;;;;5.40;1.67;;;19.10;99.90;;;;;;5058823;28;20666;-73
2022/10/05 01:12:50;;;;;;;3.88;1.73;;;19.10;99.90;;;;;;5059091;28;20028;-73
2022/10/05 01:16:03;;;;;;;6.10;1.98;;;19.00;99.90;;;;;;5056545;28;20446;-73
2022/10/05 01:18:43;;;;;;;5.57;1.85;;;19.00;99.90;;;;;;5063707;28;20063;-73
2022/10/05 01:21:15;;;;;;;3.67;1.40;;;19.00;99.90;;;;;;5061100;28;20460;-73
2022/10/05 01:24:11;;;;;;;6.47;2.22;;;19.00;99.90;;;;;;5057772;28;20376;-74
2022/10/05 01:26:45;;;;;;;5.95;1.85;;;19.00;99.90;;;;;;5040746;28;20087;-74
2022/10/05 01:29:20;;;;;;;5.18;1.65;;;18.90;99.90;;;;;;5051764;28;20362;-73
2022/10/05 01:32:04;;;;;;;5.55;1.55;;;18.90;99.90;;;;;;5077941;28;20040;-73
2022/10/05 01:34:52;;;;;;;7.35;1.50;;;18.90;99.90;;;;;;5044192;28;20028;-74
2022/10/05 01:37:25;;;;;;;4.20;1.48;;;19.00;99.90;;;;;;5056753;28;20056;-74
2022/10/05 01:40:07;;;;;;;4.53;1.70;;;19.00;99.90;;;;;;5062345;28;20072;-73
2022/10/05 01:42:33;;;;;;;5.35;1.88;;;19.10;99.90;;;;;;5049239;28;20047;-74
2022/10/05 01:45:01;;;;;;;5.40;1.83;;;19.10;99.90;;;;;;5056598;28;20033;-74
2022/10/05 01:47:42;;;;;;;4.25;2.00;;;19.00;99.90;;;;;;5044024;28;20161;-73
2022/10/05 01:50:20;;;;;;;6.45;2.00;;;19.00;99.90;;;;;;5061447;28;21163;-73
2022/10/05 01:53:09;;;;;;;5.45;1.90;;;19.00;99.90;;;;;;5062556;28;20044;-73
2022/10/05 01:55:48;;;;;;;7.93;2.17;;;18.90;99.90;;;;;;5058392;28;20028;-74
2022/10/05 01:58:31;;;;;;;;;;;18.80;99.90;;;;;;5058727;28;20044;-73
2022/10/05 02:01:13;;;;;;;5.53;2.03;;;18.90;99.90;;;;;;5048252;28;19916;-74
2022/10/05 02:03:48;;;;;;;5.15;2.00;;;18.90;99.90;;;;;;5042637;28;20044;-74
2022/10/05 02:06:23;;;;;;;4.18;2.17;;;18.90;99.90;;;;;;5033526;28;20025;-73
2022/10/05 02:08:55;;;;;;;6.70;2.28;;;18.90;99.90;;;;;;5036068;28;20414;-74
2022/10/05 02:11:22;;;;;;;6.18;2.47;;;18.90;99.90;;;;;;5038586;28;20048;-73
2022/10/05 02:14:04;;;;;;;5.63;2.55;;;18.90;99.90;;;;;;5043429;28;20067;-73
2022/10/05 02:16:50;;;;;;;6.10;2.33;;;19.00;99.90;;;;;;5048677;28;20033;-73
2022/10/05 02:19:24;;;;;;;5.90;1.80;;;18.90;99.90;;;;;;5045359;28;20041;-73
2022/10/05 02:22:01;;;;;;;6.22;1.98;;;18.80;99.90;;;;;;5038710;28;20041;-72
2022/10/05 02:24:56;;;;;;;5.15;2.33;;;18.80;99.90;;;;;;5052152;28;20044;-73
2022/10/05 02:27:32;;;;;;;5.18;2.05;;;18.70;99.90;;;;;;5040121;28;20435;-74
2022/10/05 02:30:07;;;;;;;6.18;2.25;;;18.70;99.90;;;;;;5038205;28;20491;-73
2022/10/05 02:32:41;;;;;;;7.97;2.80;;;18.70;99.90;;;;;;5040600;28;20040;-73
2022/10/05 02:35:14;;;;;;;9.35;2.53;;;18.70;99.90;;;;;;5045219;28;20460;-73
2022/10/05 02:37:56;;;;;;;6.53;2.33;;;18.70;99.90;;;;;;5041664;28;20026;-74
2022/10/05 02:40:45;;;;;;;9.30;2.67;;;18.60;99.90;;;;;;5056620;28;20414;-74
2022/10/05 02:43:28;;;;;;;7.88;3.03;;;18.60;99.90;;;;;;5062574;28;20090;-74
2022/10/05 02:46:18;;;;;;;6.40;2.90;;;18.60;99.90;;;;;;5061321;28;20097;-74
2022/10/05 02:49:10;;;;;;;6.75;2.95;;;18.60;99.90;;;;;;5056978;28;20384;-74
2022/10/05 02:51:48;;;;;;;5.05;2.10;;;18.60;99.90;;;;;;5061746;28;20039;-73
2022/10/05 02:54:25;;;;;;;4.88;2.10;;;18.60;99.90;;;;;;5056938;28;20080;-73
2022/10/05 02:57:21;;;;;;;4.70;2.10;;;18.60;99.90;;;;;;5057358;28;20088;-73
2022/10/05 03:00:13;;;;;;;6.65;2.75;;;18.50;99.90;;;;;;5034571;28;20351;-74
2022/10/05 03:02:48;;;;;;;6.28;2.70;;;18.50;99.90;;;;;;5042314;28;20043;-74
2022/10/05 03:05:20;;;;;;;7.43;2.80;;;18.50;99.90;;;;;;5057075;28;20416;-73
2022/10/05 03:07:46;;;;;;;6.13;3.10;;;18.50;99.90;;;;;;5062597;28;20387;-73
2022/10/05 03:10:20;;;;;;;9.27;3.47;;;18.50;99.90;;;;;;5055283;28;20029;-73
2022/10/05 03:13:24;;;;;;;7.93;3.10;;;18.60;99.90;;;;;;5055336;28;20037;-74
2022/10/05 03:16:05;;;;;;;6.30;3.08;;;18.60;99.90;;;;;;5054065;28;20072;-73
2022/10/05 03:19:03;;;;;;;7.68;3.67;;;18.60;99.90;;;;;;5041408;28;20389;-73
2022/10/05 03:21:41;;;;;;;7.75;3.10;;;18.50;99.90;;;;;;5055374;28;20067;-73
2022/10/05 03:24:34;;;;;;;7.05;2.95;;;18.50;99.90;;;;;;5073134;28;20128;-74
2022/10/05 03:27:06;;;;;;;8.52;3.22;;;18.40;99.90;;;;;;5059328;28;20039;-73
2022/10/05 03:29:51;;;;;;;5.55;2.85;;;18.40;99.90;;;;;;5051250;28;20461;-73
2022/10/05 03:32:46;;;;;;;8.43;3.08;;;18.30;99.90;;;;;;5070779;28;20112;-73
2022/10/05 03:35:24;;;;;;;9.00;3.42;;;18.30;99.90;;;;;;5070908;28;20404;-74
2022/10/05 03:38:03;;;;;;;6.68;2.92;;;18.30;99.90;;;;;;5053239;28;20086;-74
2022/10/05 03:40:52;;;;;;;8.82;3.20;;;18.30;99.90;;;;;;5036474;28;20425;-74
2022/10/05 03:43:48;;;;;;;5.72;3.35;;;18.30;99.90;;;;;;5038846;28;20409;-73
2022/10/05 03:46:39;;;;;;;7.78;3.50;;;18.30;99.90;;;;;;5046781;28;20032;-73
2022/10/05 03:49:18;;;;;;;7.78;3.80;;;18.30;99.90;;;;;;5039593;28;20064;-73
2022/10/05 03:52:16;;;;;;;8.10;3.72;;;18.30;99.90;;;;;;5033907;28;20033;-74
2022/10/05 03:55:18;;;;;;;9.02;3.95;;;18.30;99.90;;;;;;5054317;28;20117;-74
2022/10/05 03:57:46;;;;;;;9.38;3.97;;;18.30;99.90;;;;;;5036175;28;20089;-74
2022/10/05 04:00:19;;;;;;;9.57;4.30;;;18.30;99.90;;;;;;5075486;28;20059;-74
2022/10/05 04:03:10;;;;;;;8.05;4.40;;;18.30;99.90;;;;;;5062459;28;20445;-74
2022/10/05 04:05:59;;;;;;;7.47;4.30;;;18.30;99.90;;;;;;5051724;28;20086;-74
2022/10/05 04:08:46;;;;;;;9.30;4.63;;;18.30;99.90;;;;;;5048172;28;20040;-75
2022/10/05 04:11:17;;;;;;;9.02;4.28;;;18.40;99.90;;;;;;5062095;28;20040;-74
2022/10/05 04:13:56;;;;;;;9.77;5.28;;;18.40;99.90;;;;;;5059318;28;20044;-73
2022/10/05 04:16:32;;;;;;;11.25;4.50;;;18.50;99.90;;;;;;5053905;28;20560;-73
2022/10/05 04:19:11;;;;;;;9.18;4.68;;;18.50;99.90;;;;;;5062876;28;20090;-73
2022/10/05 04:21:58;;;;;;;10.70;5.57;;;18.50;99.90;;;;;;5033941;28;20067;-75
2022/10/05 04:24:40;;;;;;;10.20;5.38;;;18.50;99.90;;;;;;5063671;28;20136;-74
2022/10/05 04:27:27;;;;;;;9.90;5.30;;;18.50;99.90;;;;;;5058396;28;20032;-73
2022/10/05 04:30:02;;;;;;;15.57;7.10;;;18.40;99.90;;;;;;5065623;28;20075;-73
2022/10/05 04:32:41;;;;;;;9.77;5.32;;;18.40;99.90;;;;;;5078235;28;20028;-73
2022/10/05 04:35:13;;;;;;;9.55;5.75;;;18.40;99.90;;;;;;5063041;28;20706;-75
2022/10/05 04:38:22;;;;;;;10.95;6.30;;;18.40;99.90;;;;;;5061161;28;20656;-74
2022/10/05 04:41:15;;;;;;;8.98;5.07;;;18.40;99.90;;;;;;5004357;28;20040;-74
2022/10/05 04:44:15;;;;;;;8.40;4.88;;;18.50;99.90;;;;;;5064733;28;20060;-74
2022/10/05 04:46:40;;;;;;;8.75;4.97;;;18.50;99.90;;;;;;5059482;28;20685;-73
2022/10/05 04:49:33;;;;;;;9.55;5.00;;;18.50;99.90;;;;;;5057356;28;20387;-73
2022/10/05 04:52:33;;;;;;;8.90;4.35;;;18.40;99.90;;;;;;5057697;28;20067;-74
2022/10/05 04:55:37;;;;;;;9.00;5.03;;;18.50;99.90;;;;;;5060711;28;20594;-73
2022/10/05 04:58:05;;;;;;;9.40;4.63;;;18.50;99.90;;;;;;5029390;28;20041;-74
2022/10/05 05:00:53;;;;;;;7.65;4.32;;;18.50;99.90;;;;;;5057957;28;20033;-73
2022/10/05 05:03:50;;;;;;;9.00;4.13;;;18.40;99.90;;;;;;5058486;28;20066;-73
2022/10/05 05:06:37;;;;;;;8.20;4.50;;;18.40;99.90;;;;;;5065162;28;20112;-73
2022/10/05 05:09:30;;;;;;;8.20;4.53;;;18.40;99.90;;;;;;5078217;28;20119;-74
2022/10/05 05:12:25;;;;;;;9.73;4.30;;;18.40;99.90;;;;;;5056546;28;20040;-75
2022/10/05 05:15:08;;;;;;;8.23;4.63;;;18.40;99.90;;;;;;5061698;28;20040;-74
2022/10/05 05:18:01;;;;;;;9.00;4.18;;;18.50;99.90;;;;;;5055676;28;20090;-74
2022/10/05 05:21:01;;;;;;;9.13;4.07;;;18.40;99.90;;;;;;5061820;28;20035;-74
2022/10/05 05:23:39;;;;;;;7.70;4.45;;;18.50;99.90;;;;;;5064319;28;20694;-73
2022/10/05 05:26:25;;;;;;;10.95;5.32;;;18.40;99.90;;;;;;5058575;28;21020;-75
2022/10/05 05:29:04;;;;;;;15.20;6.38;;;18.40;99.90;;;;;;5061620;28;20066;-74
2022/10/05 05:31:44;;;;;;;;;;;18.30;99.90;;;;;;5056267;28;20457;-73
2022/10/05 05:34:30;;;;;;;7.97;4.57;;;18.30;99.90;;;;;;5057472;28;19916;-73
2022/10/05 05:37:26;;;;;;;8.50;4.43;;;18.20;99.90;;;;;;5022647;28;20112;-74
2022/10/05 05:40:19;;;;;;;10.90;4.20;;;18.20;99.90;;;;;;5057902;28;20039;-74
2022/10/05 05:42:50;;;;;;;8.48;4.85;;;18.10;99.90;;;;;;5036636;28;20607;-74
2022/10/05 05:45:33;;;;;;;10.43;4.95;;;18.10;99.90;;;;;;5071588;28;20069;-75
2022/10/05 05:48:01;;;;;;;10.82;4.75;;;18.10;99.90;;;;;;5072655;28;20079;-73
2022/10/05 05:50:48;;;;;;;12.13;5.50;;;18.10;99.90;;;;;;5058564;28;20037;-76
2022/10/05 05:53:29;;;;;;;11.00;5.07;;;18.10;99.90;;;;;;5062038;28;20056;-74
2022/10/05 05:56:07;;;;;;;9.45;4.35;;;18.10;99.90;;;;;;5071417;28;20068;-74
2022/10/05 05:58:58;;;;;;;11.63;5.63;;;18.10;99.90;;;;;;5061384;28;20025;-75
2022/10/05 06:01:25;;;;;;;;;;;18.20;99.90;;;;;;5057637;28;20037;-74
2022/10/05 06:04:02;;;;;;;10.60;4.75;;;18.20;99.90;;;;;;5049595;28;19916;-73
2022/10/05 06:06:36;;;;;;;11.00;3.97;;;18.30;99.90;;;;;;5056255;28;20081;-73
2022/10/05 06:09:15;;;;;;;10.45;4.32;;;18.30;99.90;;;;;;5063697;28;20048;-74
2022/10/05 06:11:54;;;;;;;9.32;4.80;;;18.40;99.90;;;;;;5060664;28;20052;-75
2022/10/05 06:14:23;;;;;;;;;;;18.40;99.90;;;;;;5059244;28;20045;-74
2022/10/05 06:16:59;;;;;;;8.90;3.80;;;18.40;99.90;;;;;;5060791;28;19913;-75
2022/10/05 06:19:27;;;;;;;6.60;3.58;;;18.40;99.90;;;;;;5057303;28;20035;-76
2022/10/05 06:22:21;;;;;;;8.05;3.38;;;18.40;99.90;;;;;;5059853;28;20036;-75
2022/10/05 06:25:08;;;;;;;7.35;4.22;;;18.40;99.90;;;;;;5015449;28;20024;-73
2022/10/05 06:28:12;;;;;;;5.93;3.25;;;18.50;99.90;;;;;;5040573;28;20080;-73
2022/10/05 06:31:08;;;;;;;10.25;4.25;;;18.60;99.90;;;;;;5041741;28;20032;-74
2022/10/05 06:33:36;;;;;;;6.30;2.90;;;18.70;99.90;;;;;;5069383;28;20095;-75
2022/10/05 06:36:11;;;;;;;8.02;2.50;;;18.80;99.90;;;;;;5065343;28;20035;-73
2022/10/05 06:38:46;;;;;;;11.23;4.72;;;18.80;99.90;;;;;;5057905;28;20395;-73
2022/10/05 06:41:34;;;;;;;6.13;3.20;;;18.90;99.90;;;;;;5048216;28;20083;-73
2022/10/05 06:44:03;;;;;;;9.77;3.58;;;18.90;99.90;;;;;;5056331;28;20036;-74
2022/10/05 06:46:46;;;;;;;8.98;3.53;;;19.00;99.90;;;;;;5059649;28;20033;-74
2022/10/05 06:49:23;;;;;;;7.85;4.07;;;19.00;99.90;;;;;;5056910;28;20041;-74
2022/10/05 06:52:15;;;;;;;5.68;2.75;;;19.10;99.90;;;;;;5057071;28;20056;-73
2022/10/05 06:55:05;;;;;;;6.75;2.70;;;19.20;99.90;;;;;;5012828;28;20371;-73
2022/10/05 06:57:45;;;;;;;6.45;3.35;;;19.40;99.90;;;;;;5033795;28;20043;-74
2022/10/05 07:00:11;;;;;;;7.70;3.90;;;19.50;99.90;;;;;;5036901;28;20142;-75
2022/10/05 07:03:03;;;;;;;7.03;3.10;;;19.50;99.90;;;;;;5041299;28;20060;-74
2022/10/05 07:06:07;;;;;;;6.63;3.08;;;19.60;99.90;;;;;;5034244;28;20481;-75
2022/10/05 07:09:02;;;;;;;7.28;2.72;;;19.80;99.90;;;;;;5040078;28;20978;-74
2022/10/05 07:11:33;;;;;;;5.53;3.13;;;19.90;99.90;;;;;;5026209;28;20043;-74
2022/10/05 07:14:27;;;;;;;6.00;3.03;;;20.00;99.90;;;;;;5059966;28;20047;-75
2022/10/05 07:17:34;;;;;;;7.50;2.72;;;20.10;99.90;;;;;;5050103;28;20044;-74
2022/10/05 07:20:12;;;;;;;4.80;2.38;;;20.10;99.90;;;;;;5053343;28;20036;-75
2022/10/05 07:23:10;;;;;;;7.70;3.10;;;20.10;99.90;;;;;;5039735;28;20042;-76
2022/10/05 07:25:49;;;;;;;6.88;2.83;;;20.10;99.90;;;;;;5033765;28;20069;-74
2022/10/05 07:28:20;;;;;;;8.25;3.10;;;20.20;99.90;;;;;;5052840;28;20051;-76
2022/10/05 07:30:54;;;;;;;6.60;2.55;;;20.30;99.90;;;;;;5051814;28;20035;-75
2022/10/05 07:33:26;;;;;;;8.93;3.10;;;20.30;99.90;;;;;;5059719;28;20060;-76
2022/10/05 07:38:46;;;;;;;8.00;2.70;;;20.40;99.90;;;;;;5057029;28;20058;-75
2022/10/05 07:41:26;;;;;;;6.13;2.88;;;20.50;99.90;;;;;;5054333;28;20029;-75
2022/10/05 07:44:11;;;;;;;11.25;3.35;;;20.50;99.90;;;;;;5069835;28;20133;-76
2022/10/05 07:47:05;;;;;;;7.93;2.97;;;20.50;99.90;;;;;;5073088;28;20040;-75
2022/10/05 07:49:46;;;;;;;18.08;10.13;;;20.50;99.90;;;;;;5059833;28;20055;-75
2022/10/05 07:52:25;;;;;;;8.93;3.40;;;20.60;99.90;;;;;;5056716;28;20033;-74
2022/10/05 07:55:02;;;;;;;7.07;3.05;;;20.60;99.90;;;;;;5060376;28;20051;-75
2022/10/05 07:57:59;;;;;;;9.55;3.28;;;20.60;99.90;;;;;;5054206;28;20060;-75
2022/10/05 08:00:48;;;;;;;8.80;2.78;;;20.70;99.90;;;;;;5055102;28;20041;-75
2022/10/05 08:03:32;;;;;;;10.15;3.70;;;20.70;99.90;;;;;;5037101;28;20045;-74
2022/10/05 08:06:00;;;;;;;5.75;2.60;;;20.70;99.90;;;;;;5054501;28;20045;-74
2022/10/05 08:08:52;;;;;;;7.78;3.13;;;20.80;99.90;;;;;;5036057;28;20041;-74
2022/10/05 08:11:29;;;;;;;8.27;3.00;;;20.90;99.90;;;;;;5041440;28;20041;-75
2022/10/05 08:14:33;;;;;;;6.43;2.83;;;21.00;99.90;;;;;;5047910;28;20041;-74
2022/10/05 08:17:04;;;;;;;9.77;2.60;;;21.10;99.90;;;;;;5057101;28;20370;-74
2022/10/05 08:19:42;;;;;;;5.97;2.63;;;21.40;99.90;;;;;;5043601;28;20127;-76
2022/10/05 08:22:22;;;;;;;6.88;2.50;;;21.50;99.90;;;;;;5058036;28;21078;-73
2022/10/05 08:25:03;;;;;;;8.20;2.80;;;21.50;99.90;;;;;;5039011;28;20022;-74
2022/10/05 08:27:45;;;;;;;6.38;2.70;;;21.60;99.90;;;;;;5047893;28;20500;-76
2022/10/05 08:30:14;;;;;;;7.45;2.78;;;21.70;99.90;;;;;;5043364;28;20025;-75
2022/10/05 08:33:01;;;;;;;7.30;3.00;;;21.80;99.90;;;;;;5038079;28;20519;-75
2022/10/05 08:35:59;;;;;;;6.55;2.55;;;21.80;99.90;;;;;;5071187;28;20477;-75
2022/10/05 08:38:31;;;;;;;7.25;2.60;;;22.00;99.90;;;;;;5060436;28;20063;-75
2022/10/05 08:41:03;;;;;;;7.07;3.13;;;22.20;99.90;;;;;;5058383;28;20036;-75
2022/10/05 08:43:55;;;;;;;9.50;3.13;;;22.40;99.90;;;;;;5071960;28;20491;-75
2022/10/05 08:46:39;;;;;;;8.18;2.78;;;22.60;99.90;;;;;;5046617;28;20051;-75
2022/10/05 08:49:23;;;;;;;7.57;2.75;;;22.80;99.90;;;;;;5076623;28;20083;-75
2022/10/05 08:52:24;;;;;;;5.75;2.53;;;22.90;99.90;;;;;;5053900;28;20439;-76
2022/10/05 08:55:09;;;;;;;8.85;3.05;;;23.00;99.90;;;;;;5026058;28;20069;-74
2022/10/05 08:57:54;;;;;;;5.57;2.20;;;23.20;99.90;;;;;;5055861;28;20044;-75
2022/10/05 09:00:20;;;;;;;7.40;3.30;;;23.20;99.90;;;;;;5074882;28;20036;-74
2022/10/05 09:02:46;;;;;;;5.68;2.45;;;23.40;99.90;;;;;;5058682;28;20388;-75
2022/10/05 09:05:36;;;;;;;7.45;2.85;;;23.20;99.90;;;;;;5072264;28;20508;-75
2022/10/05 09:08:20;;;;;;;8.82;2.63;;;23.10;99.90;;;;;;5059717;28;20036;-74
2022/10/05 09:11:03;;;;;;;9.48;2.53;;;23.20;99.90;;;;;;5051252;28;20037;-74
2022/10/05 09:13:41;;;;;;;8.13;2.40;;;23.50;99.90;;;;;;5044680;28;20045;-74
2022/10/05 09:16:16;;;;;;;6.82;2.22;;;23.00;99.90;;;;;;5057719;28;20028;-75
2022/10/05 09:19:06;;;;;;;6.85;2.22;;;23.20;99.90;;;;;;5076995;28;20115;-74
2022/10/05 09:21:56;;;;;;;12.23;5.28;;;23.50;99.90;;;;;;5040775;28;20318;-74
2022/10/05 09:24:48;;;;;;;5.72;2.22;;;23.80;99.90;;;;;;5052734;28;21997;-75
2022/10/05 09:27:17;;;;;;;8.27;2.22;;;23.90;99.90;;;;;;5045620;28;20048;-73
2022/10/05 09:30:01;;;;;;;9.43;2.25;;;24.10;99.90;;;;;;5060706;28;20164;-75
2022/10/05 09:32:45;;;;;;;8.57;2.28;;;24.00;99.90;;;;;;5071892;28;20078;-75
2022/10/05 09:35:39;;;;;;;6.60;2.22;;;24.10;99.90;;;;;;5071794;28;20040;-75
2022/10/05 09:38:43;;;;;;;6.57;2.10;;;24.20;99.90;;;;;;5058104;28;20492;-74
2022/10/05 09:41:40;;;;;;;8.40;2.50;;;24.30;99.90;;;;;;5058923;28;20523;-74
2022/10/05 09:44:21;;;;;;;6.93;2.35;;;24.50;99.90;;;;;;5054534;28;20094;-75
2022/10/05 09:46:56;;;;;;;9.43;2.60;;;24.60;99.90;;;;;;5055493;28;20041;-75
2022/10/05 09:49:52;;;;;;;9.73;2.67;;;24.40;99.90;;;;;;5054258;28;20056;-75
2022/10/05 09:52:44;;;;;;;7.15;2.13;;;24.50;99.90;;;;;;5033794;28;20094;-74
2022/10/05 09:55:24;;;;;;;8.00;2.58;;;25.10;99.90;;;;;;5030920;28;20032;-76
2022/10/05 09:58:04;;;;;;;7.70;1.80;;;25.40;99.90;;;;;;5056124;28;20041;-74
2022/10/05 10:01:20;;;;;;;6.15;2.25;;;25.30;99.90;;;;;;5048597;28;20032;-74
2022/10/05 10:04:14;;;;;;;5.95;1.83;;;25.70;99.90;;;;;;5040798;28;20116;-75
2022/10/05 10:07:01;;;;;;;11.43;2.00;;;25.70;99.90;;;;;;5040883;28;20033;-74
2022/10/05 10:10:04;;;;;;;9.80;2.28;;;26.00;99.90;;;;;;5056797;28;20045;-76
2022/10/05 10:12:56;;;;;;;5.93;2.08;;;26.00;99.90;;;;;;5036507;28;20036;-75
2022/10/05 10:15:43;;;;;;;6.60;2.08;;;26.10;99.90;;;;;;5037323;28;20109;-74
2022/10/05 10:18:17;;;;;;;8.25;2.00;;;26.50;99.90;;;;;;5038603;28;20040;-75
2022/10/05 10:20:55;;;;;;;7.43;1.85;;;26.90;99.90;;;;;;5069904;28;20036;-75
2022/10/05 10:23:35;;;;;;;5.68;1.98;;;27.10;99.90;;;;;;5060408;28;20153;-74
2022/10/05 10:26:11;;;;;;;9.93;2.47;;;27.60;99.90;;;;;;5048333;28;20042;-77
2022/10/05 10:28:53;;;;;;;7.70;2.28;;;27.90;99.90;;;;;;5081992;28;20494;-76
2022/10/05 10:31:51;;;;;;;5.68;1.70;;;28.10;99.90;;;;;;5069646;28;20043;-77
2022/10/05 10:34:39;;;;;;;5.78;2.38;;;28.20;99.90;;;;;;5009221;28;20036;-77
2022/10/05 10:37:38;;;;;;;6.45;2.10;;;28.40;99.90;;;;;;5060549;28;20051;-77
2022/10/05 10:40:24;;;;;;;7.60;2.08;;;28.70;99.90;;;;;;5072085;28;20041;-76
2022/10/05 10:42:59;;;;;;;7.88;2.50;;;28.90;99.90;;;;;;5054272;28;20040;-76
2022/10/05 10:45:44;;;;;;;8.80;1.90;;;29.10;99.90;;;;;;5068662;28;20430;-77
2022/10/05 10:48:29;;;;;;;5.22;1.83;;;29.10;99.90;;;;;;5061167;28;20488;-77
2022/10/05 10:51:31;;;;;;;5.40;1.50;;;29.40;99.10;;;;;;5059258;28;20086;-77
2022/10/05 10:54:16;;;;;;;6.03;1.88;;;28.40;98.90;;;;;;5002117;28;20074;-77
2022/10/05 10:56:47;;;;;;;7.18;1.90;;;28.40;99.90;;;;;;5033106;28;20120;-77
2022/10/05 10:59:43;;;;;;;8.43;2.28;;;28.60;99.90;;;;;;5037650;28;20038;-76
2022/10/05 11:02:36;;;;;;;;;;;28.20;99.90;;;;;;5036926;28;20041;-77
2022/10/05 11:05:04;;;;;;;7.47;2.20;;;28.60;99.90;;;;;;5038877;28;20295;-77
2022/10/05 11:08:07;;;;;;;7.63;2.38;;;29.20;99.90;;;;;;5039298;28;20071;-77
2022/10/05 11:11:07;;;;;;;5.70;1.85;;;29.30;99.90;;;;;;5039924;28;20036;-77
2022/10/05 11:13:42;;;;;;;4.80;2.00;;;29.30;99.90;;;;;;5040747;28;20037;-77
2022/10/05 11:16:20;;;;;;;4.57;1.63;;;30.10;99.90;;;;;;5059001;28;20032;-77
2022/10/05 11:19:14;;;;;;;5.00;2.15;;;29.30;99.90;;;;;;5055012;28;20036;-77
2022/10/05 11:21:57;;;;;;;7.88;1.88;;;29.10;99.90;;;;;;5039579;28;20186;-77
2022/10/05 11:24:55;;;;;;;5.05;2.08;;;28.20;99.90;;;;;;5054413;28;20049;-77
2022/10/05 11:28:04;;;;;;;6.82;1.60;;;27.90;99.90;;;;;;4993406;28;20042;-77
2022/10/05 11:31:12;;;;;;;6.97;2.30;;;28.20;99.90;;;;;;5049210;28;20032;-77
2022/10/05 11:33:41;;;;;;;7.03;1.73;;;28.80;99.90;;;;;;5042557;28;20044;-77
2022/10/05 11:36:41;;;;;;;5.38;2.08;;;28.50;99.90;;;;;;5056012;28;20082;-76
2022/10/05 11:39:22;;;;;;;7.80;1.92;;;28.80;99.90;;;;;;5076212;28;20440;-76
2022/10/05 11:42:36;;;;;;;5.18;1.85;;;28.40;99.90;;;;;;5072344;28;20052;-77
2022/10/05 11:45:43;;;;;;;6.65;1.92;;;28.20;99.90;;;;;;5053286;28;20037;-77
2022/10/05 11:48:44;;;;;;;4.45;1.83;;;28.40;99.90;;;;;;5023566;28;20029;-77
2022/10/05 11:51:37;;;;;;;5.95;1.90;;;28.20;99.90;;;;;;5038470;28;20029;-77
2022/10/05 11:54:20;;;;;;;4.80;1.88;;;29.00;99.90;;;;;;5054959;28;20045;-77
2022/10/05 11:56:59;;;;;;;7.13;2.33;;;29.40;99.90;;;;;;5046681;28;20462;-77
2022/10/05 11:59:38;;;;;;;8.30;2.55;;;29.60;99.90;;;;;;5036837;28;20029;-77
2022/10/05 12:02:45;;;;;;;5.15;1.95;;;30.00;99.90;;;;;;5036894;28;20048;-77
2022/10/05 12:05:28;;;;;;;6.15;2.45;;;30.80;99.90;;;;;;5034768;28;20037;-77
2022/10/05 12:08:18;;;;;;;7.57;2.28;;;30.80;99.90;;;;;;5035343;28;20124;-78
2022/10/05 12:11:14;;;;;;;8.35;1.85;;;30.50;99.90;;;;;;5056746;28;20086;-78
2022/10/05 12:13:50;;;;;;;;;;;30.50;99.90;;;;;;5074059;28;20464;-77
2022/10/05 12:16:21;;;;;;;;;;;31.00;99.50;;;;;;5075119;28;19936;-77
2022/10/05 12:19:17;;;;;;;8.20;3.60;;;31.00;99.20;;;;;;5074725;28;19944;-78
2022/10/05 12:22:02;;;;;;;6.47;2.35;;;29.50;99.90;;;;;;5043039;28;20177;-78
2022/10/05 12:25:00;;;;;;;8.55;2.25;;;29.70;99.90;;;;;;5051437;28;20051;-78
2022/10/05 12:27:32;;;;;;;6.72;2.53;;;29.50;99.90;;;;;;5043343;28;20033;-79
2022/10/05 12:30:17;;;;;;;5.93;1.98;;;28.50;99.90;;;;;;5061922;28;20122;-79
2022/10/05 12:33:32;;;;;;;5.95;2.15;;;28.20;99.90;;;;;;5054902;28;20025;-80
2022/10/05 12:36:35;;;;;;;5.75;2.00;;;28.90;99.90;;;;;;5041748;28;20097;-78
2022/10/05 12:39:11;;;;;;;7.30;1.70;;;29.00;99.90;;;;;;5072915;28;20038;-78
2022/10/05 12:41:52;;;;;;;8.57;2.08;;;28.20;99.90;;;;;;5043157;28;20030;-75
2022/10/05 12:44:41;;;;;;;7.78;1.98;;;28.00;99.90;;;;;;5039052;28;20049;-74
2022/10/05 12:47:10;;;;;;;12.40;5.30;;;27.60;99.90;;;;;;5060942;28;20392;-75
2022/10/05 12:50:14;;;;;;;7.85;3.60;;;27.60;99.90;;;;;;5076224;28;20029;-75
2022/10/05 12:52:58;;;;;;;6.45;1.92;;;28.10;99.90;;;;;;5038301;28;20045;-74
2022/10/05 12:55:41;;;;;;;8.02;2.17;;;27.80;99.90;;;;;;5039148;28;20037;-74
2022/10/05 12:58:18;;;;;;;6.75;2.08;;;28.10;99.90;;;;;;5042223;28;20086;-74
2022/10/05 13:01:15;;;;;;;6.30;2.28;;;28.10;99.90;;;;;;5037003;28;20538;-75
2022/10/05 13:04:02;;;;;;;7.78;2.40;;;29.70;99.90;;;;;;5049981;28;20044;-75
2022/10/05 13:06:43;;;;;;;6.85;1.67;;;31.10;99.90;;;;;;5058744;28;20476;-74
2022/10/05 13:09:22;;;;;;;5.60;1.73;;;30.00;99.90;;;;;;5073290;28;20057;-75
2022/10/05 13:11:51;;;;;;;6.05;2.85;;;31.40;99.90;;;;;;5047882;28;20048;-75
2022/10/05 13:14:37;;;;;;;6.18;1.83;;;32.10;98.40;;;;;;5045615;28;20120;-76
2022/10/05 13:17:17;;;;;;;6.50;1.77;;;31.40;98.40;;;;;;5055172;28;20068;-76
2022/10/05 13:19:49;;;;;;;8.10;2.22;;;30.10;99.90;;;;;;5061192;28;20036;-75
2022/10/05 13:22:46;;;;;;;8.32;2.17;;;28.80;99.90;;;;;;5060464;28;20079;-74
2022/10/05 13:25:34;;;;;;;6.63;1.77;;;28.90;99.90;;;;;;5038322;28;20132;-75
2022/10/05 13:28:18;;;;;;;5.70;1.83;;;28.70;99.90;;;;;;5036006;28;20033;-75
2022/10/05 13:30:56;;;;;;;8.77;1.70;;;28.00;99.90;;;;;;5053872;28;20052;-75
2022/10/05 13:33:49;;;;;;;5.88;1.80;;;28.00;99.90;;;;;;5070751;28;20043;-75
2022/10/05 13:36:30;;;;;;;8.20;1.60;;;29.10;99.90;;;;;;5050929;28;20102;-74
2022/10/05 13:39:36;;;;;;;9.40;2.13;;;29.20;99.90;;;;;;5062282;28;20041;-74
2022/10/05 13:42:11;;;;;;;6.38;1.95;;;28.70;99.90;;;;;;5064190;28;20487;-76
2022/10/05 13:44:54;;;;;;;5.72;1.63;;;29.20;99.90;;;;;;5073349;28;20029;-75
2022/10/05 13:48:10;;;;;;;6.38;2.05;;;28.60;99.90;;;;;;5057751;28;20515;-75
2022/10/05 13:51:00;;;;;;;3.95;1.70;;;30.20;99.90;;;;;;5027961;28;21323;-75
2022/10/05 13:53:46;;;;;;;8.70;2.17;;;29.70;99.90;;;;;;5049048;28;20036;-74
2022/10/05 13:56:29;;;;;;;7.85;2.35;;;30.00;99.90;;;;;;5053413;28;20029;-74
2022/10/05 13:59:13;;;;;;;6.57;2.08;;;30.60;99.90;;;;;;5056430;28;20033;-74
2022/10/05 14:01:45;;;;;;;6.07;2.03;;;32.00;98.70;;;;;;5046346;28;20033;-74
2022/10/05 14:04:16;;;;;;;6.18;1.77;;;32.80;97.70;;;;;;5033148;28;20144;-74
2022/10/05 14:06:43;;;;;;;4.18;1.85;;;31.70;97.70;;;;;;5041801;28;20037;-74
2022/10/05 14:09:19;;;;;;;15.63;2.55;;;30.30;99.50;;;;;;5030475;28;20045;-74
2022/10/05 14:12:12;;;;;;;9.32;2.35;;;29.60;99.90;;;;;;5057613;28;20037;-74
2022/10/05 14:14:57;;;;;;;7.60;2.00;;;28.80;99.90;;;;;;5054037;28;20040;-74
2022/10/05 14:17:39;;;;;;;7.47;1.77;;;28.90;99.90;;;;;;5041775;28;20467;-74